Aviation Digital Data Service (ADDS)

Output produced by METARs form (1728 UTC 21 November 2017)
found at http://aviationweather.gov/adds/metars/
 
KMHT 211720Z 2118/2218 19009KT P6SM FEW250 
     FM220000 19008KT P6SM SCT250 
     FM221200 VRB03KT P6SM OVC050 
     PROB30 2212/2218 3SM -RA BKN005